Time;durP1;ratioP1;P1;durP2;ratioP2;P2;SDS_P1;SDS_P2;PMS_P1;PMS_P2;Temp;Humidity;BMP_temperature;BMP_pressure;BME280_temperature;BME280_humidity;BME280_pressure;Samples;Min_cycle;Max_cycle;Signal;HPM_P1;HPM_P2
2022/06/12 00:00:05;;;;;;;;;;;;;;;15.54;65.65;100294.16;5078450;28;1981;-94
2022/06/12 00:02:32;;;;;;;;;;;;;;;15.53;65.64;100284.38;5075662;28;1703;-95
2022/06/12 00:04:58;;;;;;;;;;;;;;;15.53;65.52;100295.25;5059661;28;1310;-94
2022/06/12 00:07:25;;;;;;;;;;;;;;;15.53;65.56;100300.66;5077603;28;1147;-95
2022/06/12 00:09:52;;;;;;;;;;;;;;;15.53;65.50;100306.09;5068487;28;2005;-94
2022/06/12 00:12:19;;;;;;;;;;;;;;;15.53;65.44;100305.25;5068393;28;1573;-94
2022/06/12 00:14:45;;;;;;;;;;;;;;;15.52;65.45;100300.91;5057895;28;1207;-95
2022/06/12 00:17:12;;;;;;;;;;;;;;;15.52;65.45;100311.75;5059695;28;1187;-95
2022/06/12 00:19:40;;;;;;;;;;;;;;;15.51;65.55;100308.22;5060103;28;1914;-94
2022/06/12 00:22:07;;;;;;;;;;;;;;;15.50;65.54;100317.47;5059570;28;1163;-95
2022/06/12 00:24:33;;;;;;;;;;;;;;;15.51;65.46;100312.84;5063098;28;1960;-95
2022/06/12 00:27:00;;;;;;;;;;;;;;;15.50;65.43;100308.47;5062370;28;2324;-94
2022/06/12 00:29:26;;;;;;;;;;;;;;;15.49;65.45;100301.44;5056696;28;1583;-95
2022/06/12 00:31:53;;;;;;;;;;;;;;;15.50;65.40;100305.75;5057990;28;1502;-95
2022/06/12 00:34:19;;;;;;;;;;;;;;;15.48;65.34;100299.78;5070883;28;1408;-94
2022/06/12 00:36:46;;;;;;;;;;;;;;;15.48;65.40;100288.94;5075717;28;1203;-95
2022/06/12 00:39:13;;;;;;;;;;;;;;;15.47;65.39;100296.28;5071507;28;1658;-96
2022/06/12 00:41:39;;;;;;;;;;;;;;;15.47;65.38;100299.00;5050265;28;1918;-95
2022/06/12 00:44:06;;;;;;;;;;;;;;;15.45;65.33;100288.38;5062547;28;1874;-94
2022/06/12 00:46:32;;;;;;;;;;;;;;;15.45;65.38;100288.38;5059467;28;1758;-95
2022/06/12 00:48:59;;;;;;;;;;;;;;;15.44;65.33;100294.88;5074257;28;1851;-95
2022/06/12 00:51:25;;;;;;;;;;;;;;;15.44;65.20;100291.34;5046309;28;1239;-95
2022/06/12 00:53:52;;;;;;;;;;;;;;;15.43;65.25;100287.00;5058286;28;1156;-94
2022/06/12 00:56:18;;;;;;;;;;;;;;;15.41;65.31;100295.41;5053244;28;1810;-94
2022/06/12 00:58:45;;;;;;;;;;;;;;;15.40;65.25;100285.59;5071521;28;1489;-94
2022/06/12 01:01:11;;;;;;;;;;;;;;;15.41;65.21;100289.13;5070015;28;1985;-95
2022/06/12 01:06:33;;;;;;;;;;;;;;;15.41;65.12;100289.97;5066765;28;2226;-94
2022/06/12 01:06:35;;;;;;;;;;;;;;;15.39;65.16;100283.97;5054509;28;1542;-94
2022/06/12 01:09:02;;;;;;;;;;;;;;;15.38;65.15;100285.06;5052552;28;2243;-94
2022/06/12 01:11:29;;;;;;;;;;;;;;;15.38;65.25;100292.38;5054206;28;1308;-94
2022/06/12 01:13:55;;;;;;;;;;;;;;;15.37;65.26;100288.84;5055794;28;1154;-94
2022/06/12 01:16:22;;;;;;;;;;;;;;;15.37;65.16;100296.97;5069877;28;1454;-94
2022/06/12 01:18:49;;;;;;;;;;;;;;;15.35;65.18;100288.31;5055437;28;1196;-94
2022/06/12 01:21:15;;;;;;;;;;;;;;;15.35;65.19;100288.31;5054201;28;1921;-95
2022/06/12 01:23:42;;;;;;;;;;;;;;;15.35;65.22;100291.00;5053592;28;1231;-94
2022/06/12 01:26:09;;;;;;;;;;;;;;;15.35;65.32;100292.88;5053753;28;1394;-94
2022/06/12 01:28:35;;;;;;;;;;;;;;;15.34;65.14;100280.41;5070561;28;1736;-94
2022/06/12 01:31:02;;;;;;;;;;;;;;;15.33;65.26;100290.44;5054165;28;1305;-94
2022/06/12 01:33:28;;;;;;;;;;;;;;;15.33;65.18;100292.34;5056785;28;1226;-94
2022/06/12 01:35:55;;;;;;;;;;;;;;;15.31;65.16;100291.78;5055841;28;1024;-95
2022/06/12 01:38:21;;;;;;;;;;;;;;;15.30;65.29;100288.25;5067544;28;2284;-95
2022/06/12 01:40:48;;;;;;;;;;;;;;;15.32;65.13;100296.09;5051636;28;1993;-95
2022/06/12 01:43:14;;;;;;;;;;;;;;;15.30;65.15;100285.53;5054632;28;1283;-94
2022/06/12 01:45:41;;;;;;;;;;;;;;;15.28;65.19;100284.97;5054209;28;1666;-94
2022/06/12 01:48:08;;;;;;;;;;;;;;;15.28;65.21;100287.69;5050633;28;1174;-94
2022/06/12 01:50:34;;;;;;;;;;;;;;;15.29;65.14;100288.47;5048113;28;1989;-94
2022/06/12 01:53:01;;;;;;;;;;;;;;;15.27;65.18;100291.47;5054459;28;1404;-94
2022/06/12 01:55:28;;;;;;;;;;;;;;;15.26;65.20;100286.28;5070354;28;1476;-94
2022/06/12 01:57:54;;;;;;;;;;;;;;;15.26;65.15;100281.69;5061990;28;2743;-94
2022/06/12 02:00:21;;;;;;;;;;;;;;;15.26;65.10;100284.38;5050928;28;1971;-94
2022/06/12 02:02:47;;;;;;;;;;;;;;;15.25;65.00;100282.75;5038471;28;1317;-94
2022/06/12 02:05:14;;;;;;;;;;;;;;;15.24;65.06;100283.84;5070875;28;1310;-95
2022/06/12 02:07:40;;;;;;;;;;;;;;;15.24;65.09;100289.28;5071335;28;1615;-94
2022/06/12 02:10:07;;;;;;;;;;;;;;;15.22;65.11;100283.28;5044020;28;1941;-94
2022/06/12 02:15:17;;;;;;;;;;;;;;;15.22;65.10;100284.09;5063890;28;1255;-94
2022/06/12 02:17:44;;;;;;;;;;;;;;;15.21;65.10;100282.47;5050636;28;1677;-96
2022/06/12 02:20:11;;;;;;;;;;;;;;;15.19;65.08;100273.75;5050365;28;1985;-94
2022/06/12 02:22:38;;;;;;;;;;;;;;;15.20;65.10;100271.84;5035124;28;1147;-95
2022/06/12 02:25:05;;;;;;;;;;;;;;;15.19;65.03;100273.75;5050974;28;1189;-95
2022/06/12 02:27:31;;;;;;;;;;;;;;;15.19;64.95;100265.63;5052934;28;2521;-95
2022/06/12 02:29:58;;;;;;;;;;;;;;;15.18;64.98;100266.69;5044761;28;1247;-94
2022/06/12 02:32:24;;;;;;;;;;;;;;;15.18;65.07;100272.13;5059624;28;1263;-95
2022/06/12 02:34:51;;;;;;;;;;;;;;;15.17;65.00;100273.19;5053705;28;1372;-94
2022/06/12 02:37:17;;;;;;;;;;;;;;;15.18;64.95;100276.75;5053852;28;1195;-94
2022/06/12 02:39:44;;;;;;;;;;;;;;;15.16;64.95;100271.56;5052840;28;1579;-94
2022/06/12 02:42:10;;;;;;;;;;;;;;;15.16;64.95;100270.75;5070547;28;1996;-94
2022/06/12 02:44:37;;;;;;;;;;;;;;;15.14;65.00;100252.00;5069859;28;1388;-94
2022/06/12 02:47:05;;;;;;;;;;;;;;;15.14;64.98;100251.19;5054642;28;1103;-96
2022/06/12 02:49:34;;;;;;;;;;;;;;;15.14;64.96;100253.91;5070244;28;1162;-95
2022/06/12 02:52:00;;;;;;;;;;;;;;;15.13;64.99;100255.78;5053879;28;1265;-94
2022/06/12 02:54:27;;;;;;;;;;;;;;;15.13;64.89;100265.84;5056528;28;1243;-94
2022/06/12 02:56:54;;;;;;;;;;;;;;;15.12;64.93;100247.94;5073164;28;1631;-95
2022/06/12 02:59:20;;;;;;;;;;;;;;;15.12;64.95;100253.34;5075106;28;1176;-95
2022/06/12 03:01:48;;;;;;;;;;;;;;;15.11;64.88;100257.94;5078657;28;1910;-95
2022/06/12 03:04:14;;;;;;;;;;;;;;;15.11;64.98;100265.25;5071286;28;1999;-95
2022/06/12 03:06:41;;;;;;;;;;;;;;;15.10;64.85;100266.34;5060470;28;1347;-95
2022/06/12 03:09:08;;;;;;;;;;;;;;;15.09;64.90;100261.97;5060619;28;1212;-95
2022/06/12 03:11:36;;;;;;;;;;;;;;;15.08;64.89;100257.63;5077249;28;1362;-94
2022/06/12 03:14:03;;;;;;;;;;;;;;;15.08;64.96;100252.22;5060307;28;1932;-95
2022/06/12 03:16:29;;;;;;;;;;;;;;;15.07;64.79;100239.75;5060766;28;1304;-95
2022/06/12 03:18:56;;;;;;;;;;;;;;;15.07;64.90;100239.75;5060584;28;1194;-94
2022/06/12 03:21:22;;;;;;;;;;;;;;;15.06;64.88;100235.38;5077763;28;1918;-94
2022/06/12 03:23:49;;;;;;;;;;;;;;;15.07;64.88;100234.31;5059860;28;1376;-94
2022/06/12 03:26:16;;;;;;;;;;;;;;;15.06;64.90;100232.66;5078478;28;1004;-95
2022/06/12 03:28:43;;;;;;;;;;;;;;;15.06;64.67;100244.34;5076982;28;2167;-94
2022/06/12 03:31:09;;;;;;;;;;;;;;;15.05;64.97;100239.16;5076586;28;1536;-95
2022/06/12 03:33:36;;;;;;;;;;;;;;;15.05;64.80;100239.97;5057094;28;1997;-95
2022/06/12 03:36:03;;;;;;;;;;;;;;;15.04;64.73;100242.97;5040026;28;1228;-95
2022/06/12 03:38:29;;;;;;;;;;;;;;;15.03;64.72;100239.44;5040610;28;1381;-95
2022/06/12 03:40:56;;;;;;;;;;;;;;;15.03;64.78;100242.16;5056830;28;1941;-95
2022/06/12 03:43:22;;;;;;;;;;;;;;;15.04;64.78;100237.53;5076691;28;1305;-95
2022/06/12 03:45:49;;;;;;;;;;;;;;;15.03;64.71;100246.72;5077698;28;992;-95
2022/06/12 03:48:15;;;;;;;;;;;;;;;15.02;64.70;100245.09;5076636;28;1424;-95
2022/06/12 03:50:42;;;;;;;;;;;;;;;15.02;64.83;100253.25;5092399;28;1174;-94
2022/06/12 03:53:08;;;;;;;;;;;;;;;15.01;64.73;100243.47;5073144;28;1606;-95
2022/06/12 03:58:19;;;;;;;;;;;;;;;15.01;64.67;100240.78;5057243;28;2153;-95
2022/06/12 04:00:46;;;;;;;;;;;;;;;15.00;64.84;100242.66;5076683;28;1909;-94
2022/06/12 04:03:12;;;;;;;;;;;;;;;14.98;64.76;100251.03;5076087;28;1335;-95
2022/06/12 04:05:39;;;;;;;;;;;;;;;14.99;64.80;100243.72;5059668;28;1365;-94
2022/06/12 04:08:05;;;;;;;;;;;;;;;14.98;64.62;100250.22;5067935;28;2004;-94
2022/06/12 04:10:32;;;;;;;;;;;;;;;14.98;64.81;100248.34;5055734;28;2239;-92
2022/06/12 04:13:00;;;;;;;;;;;;;;;14.97;64.75;100249.41;5071657;28;1678;-94
2022/06/12 04:15:27;;;;;;;;;;;;;;;14.97;64.66;100243.16;5059937;28;1338;-94
2022/06/12 04:17:55;;;;;;;;;;;;;;;14.97;64.66;100245.88;5059292;28;1276;-94
2022/06/12 04:20:22;;;;;;;;;;;;;;;14.96;64.68;100238.81;5055890;28;1163;-95
2022/06/12 04:22:48;;;;;;;;;;;;;;;14.96;64.62;100238.81;5071854;28;2046;-94
2022/06/12 04:25:14;;;;;;;;;;;;;;;14.95;64.67;100237.19;5058897;28;1218;-94
2022/06/12 04:27:41;;;;;;;;;;;;;;;14.96;64.58;100242.34;5069824;28;3019;-94
2022/06/12 04:30:08;;;;;;;;;;;;;;;14.95;64.58;100238.00;5049427;28;1788;-94
2022/06/12 04:32:35;;;;;;;;;;;;;;;14.94;64.58;100244.50;5075434;28;1193;-94
2022/06/12 04:35:01;;;;;;;;;;;;;;;14.93;64.64;100245.56;5058929;28;1443;-94
2022/06/12 04:37:28;;;;;;;;;;;;;;;14.91;64.60;100245.03;5058852;28;1179;-94
2022/06/12 04:39:55;;;;;;;;;;;;;;;14.92;64.68;100249.34;5058976;28;1369;-94
2022/06/12 04:42:21;;;;;;;;;;;;;;;14.93;64.63;100247.47;5054737;28;1953;-94
2022/06/12 04:44:48;;;;;;;;;;;;;;;14.92;64.61;100245.84;5039297;28;1171;-95
2022/06/12 04:47:14;;;;;;;;;;;;;;;14.90;64.75;100243.38;5060914;28;1040;-94
2022/06/12 04:49:41;;;;;;;;;;;;;;;14.90;64.59;100245.25;5055798;28;1221;-94
2022/06/12 04:52:07;;;;;;;;;;;;;;;14.91;64.64;100244.19;5055299;28;1334;-94
2022/06/12 04:54:34;;;;;;;;;;;;;;;14.91;64.59;100238.75;5047479;28;1615;-94
2022/06/12 04:57:00;;;;;;;;;;;;;;;14.89;64.54;100241.75;5054057;28;2064;-94
2022/06/12 04:59:27;;;;;;;;;;;;;;;14.88;64.63;100247.41;5064361;28;2628;-95
2022/06/12 05:01:53;;;;;;;;;;;;;;;14.88;64.58;100242.81;5076323;28;1906;-94
2022/06/12 05:04:20;;;;;;;;;;;;;;;14.88;64.61;100240.13;5077300;28;1674;-94
2022/06/12 05:06:49;;;;;;;;;;;;;;;14.88;64.70;100242.81;5096679;28;829;-94
2022/06/12 05:09:15;;;;;;;;;;;;;;;14.86;64.64;100236.81;5069359;28;1667;-94
2022/06/12 05:11:42;;;;;;;;;;;;;;;14.86;64.64;100236.81;5074594;28;1245;-95
2022/06/12 05:14:08;;;;;;;;;;;;;;;14.85;64.44;100223.50;5058135;28;1314;-94
2022/06/12 05:16:35;;;;;;;;;;;;;;;14.86;64.62;100230.59;5075630;28;1203;-95
2022/06/12 05:19:01;;;;;;;;;;;;;;;14.86;64.53;100225.97;5074836;28;1297;-94
2022/06/12 05:21:28;;;;;;;;;;;;;;;14.85;64.64;100223.50;5057866;28;1914;-95
2022/06/12 05:23:55;;;;;;;;;;;;;;;14.84;64.57;100228.13;5052081;28;1761;-95
2022/06/12 05:26:21;;;;;;;;;;;;;;;14.85;64.51;100226.22;5073267;28;1939;-95
2022/06/12 05:28:48;;;;;;;;;;;;;;;14.84;64.59;100227.31;5075985;28;1028;-95
2022/06/12 05:31:14;;;;;;;;;;;;;;;14.84;64.50;100227.31;5075070;28;1290;-96
2022/06/12 05:33:41;;;;;;;;;;;;;;;14.85;64.44;100221.63;5074091;28;1699;-95
2022/06/12 05:36:07;;;;;;;;;;;;;;;14.84;64.60;100222.69;5057832;28;1204;-95
2022/06/12 05:38:35;;;;;;;;;;;;;;;14.84;64.44;100219.19;5074345;28;1256;-95
2022/06/12 05:41:02;;;;;;;;;;;;;;;14.82;64.58;100222.13;5057063;28;1969;-95
2022/06/12 05:43:29;;;;;;;;;;;;;;;14.83;64.51;100212.13;5057543;28;1733;-96
2022/06/12 05:45:55;;;;;;;;;;;;;;;14.81;64.62;100214.28;5058510;28;1215;-95
2022/06/12 05:48:22;;;;;;;;;;;;;;;14.82;64.50;100213.19;5058205;28;1152;-94
2022/06/12 05:50:49;;;;;;;;;;;;;;;14.81;64.54;100211.56;5054716;28;1218;-95
2022/06/12 05:53:16;;;;;;;;;;;;;;;14.82;64.52;100222.13;5057762;28;1196;-94
2022/06/12 05:55:44;;;;;;;;;;;;;;;14.81;64.47;100214.28;5069994;28;2080;-94
2022/06/12 05:58:10;;;;;;;;;;;;;;;14.79;64.48;100211.78;5062018;28;1937;-94
2022/06/12 06:00:37;;;;;;;;;;;;;;;14.79;64.46;100211.78;5085068;28;2387;-95
2022/06/12 06:03:03;;;;;;;;;;;;;;;14.79;64.51;100217.22;5074044;28;1905;-95
2022/06/12 06:05:30;;;;;;;;;;;;;;;14.80;64.41;100216.16;5057718;28;1176;-94
2022/06/12 06:07:56;;;;;;;;;;;;;;;14.79;64.58;100213.69;5048380;28;1404;-95
2022/06/12 06:10:23;;;;;;;;;;;;;;;14.79;64.45;100214.50;5058645;28;1213;-94
2022/06/12 06:12:49;;;;;;;;;;;;;;;14.79;64.49;100206.38;5074329;28;1187;-94
2022/06/12 06:15:16;;;;;;;;;;;;;;;14.79;64.48;100209.09;5074499;28;1185;-96
2022/06/12 06:17:42;;;;;;;;;;;;;;;14.77;64.42;100212.06;5074040;28;1191;-95
2022/06/12 06:20:09;;;;;;;;;;;;;;;14.80;64.28;100212.63;5071987;28;5140;-94
2022/06/12 06:22:35;;;;;;;;;;;;;;;14.79;64.31;100209.09;5065514;28;1906;-94
2022/06/12 06:25:02;;;;;;;;;;;;;;;14.77;64.44;100209.34;5057386;28;1610;-94
2022/06/12 06:27:29;;;;;;;;;;;;;;;14.80;64.31;100202.59;5049230;28;1771;-95
2022/06/12 06:29:55;;;;;;;;;;;;;;;14.80;64.34;100207.22;5060577;28;1195;-95
2022/06/12 06:32:22;;;;;;;;;;;;;;;14.80;64.40;100204.50;5072457;28;1520;-95
2022/06/12 06:34:48;;;;;;;;;;;;;;;14.79;64.45;100213.69;5059168;28;1562;-95
2022/06/12 06:37:15;;;;;;;;;;;;;;;14.77;64.52;100209.34;5061054;28;1304;-94
2022/06/12 06:39:42;;;;;;;;;;;;;;;14.77;64.44;100212.06;5077419;28;1574;-95
2022/06/12 06:42:10;;;;;;;;;;;;;;;14.77;64.45;100209.34;5061086;28;1914;-95
2022/06/12 06:47:21;;;;;;;;;;;;;;;14.75;64.45;100218.81;5054446;28;1216;-94
2022/06/12 06:49:47;;;;;;;;;;;;;;;14.75;64.36;100218.81;5061051;28;1310;-95
2022/06/12 06:52:13;;;;;;;;;;;;;;;14.75;64.53;100218.81;5060606;28;2217;-95
2022/06/12 06:54:40;;;;;;;;;;;;;;;14.75;64.40;100214.22;5077606;28;1305;-95
2022/06/12 06:57:06;;;;;;;;;;;;;;;14.75;64.46;100211.50;5076641;28;1665;-95
2022/06/12 06:59:33;;;;;;;;;;;;;;;14.74;64.46;100212.59;5065913;28;2803;-95
2022/06/12 07:01:59;;;;;;;;;;;;;;;14.74;64.51;100204.44;5060579;28;1975;-94
2022/06/12 07:04:26;;;;;;;;;;;;;;;14.74;64.46;100196.31;5060227;28;1399;-95
2022/06/12 07:06:52;;;;;;;;;;;;;;;14.74;64.35;100185.47;5077401;28;1163;-95
2022/06/12 07:09:19;;;;;;;;;;;;;;;14.75;64.28;100192.53;5077806;28;1241;-95
2022/06/12 07:11:45;;;;;;;;;;;;;;;14.75;64.33;100197.13;5071991;28;1665;-94
2022/06/12 07:14:12;;;;;;;;;;;;;;;14.76;64.30;100180.63;5044414;28;2060;-94
2022/06/12 07:16:38;;;;;;;;;;;;;;;14.75;64.27;100186.28;5057303;28;2285;-95
2022/06/12 07:19:05;;;;;;;;;;;;;;;14.73;64.29;100189.25;5040858;28;1081;-94
2022/06/12 07:21:32;;;;;;;;;;;;;;;14.74;64.46;100187.38;5072014;28;1913;-94
2022/06/12 07:23:58;;;;;;;;;;;;;;;14.75;64.27;100186.28;5041154;28;1159;-94
2022/06/12 07:26:25;;;;;;;;;;;;;;;14.74;64.52;100184.66;5057353;28;1226;-93
2022/06/12 07:28:52;;;;;;;;;;;;;;;14.72;64.53;100184.09;5061166;28;2570;-94
2022/06/12 07:31:19;;;;;;;;;;;;;;;14.73;64.37;100183.81;5052849;28;1284;-95
2022/06/12 07:33:45;;;;;;;;;;;;;;;14.74;64.36;100184.66;5060324;28;1226;-95
2022/06/12 07:36:12;;;;;;;;;;;;;;;14.74;64.36;100179.25;5055800;28;2017;-95
2022/06/12 07:38:38;;;;;;;;;;;;;;;14.73;64.47;100172.97;5072432;28;1297;-95
2022/06/12 07:41:05;;;;;;;;;;;;;;;14.73;64.38;100174.88;5060330;28;1231;-94
2022/06/12 07:43:33;;;;;;;;;;;;;;;14.75;64.38;100172.72;5056178;28;1918;-95
2022/06/12 07:45:59;;;;;;;;;;;;;;;14.75;64.43;100173.53;5064674;28;1791;-95
2022/06/12 07:48:26;;;;;;;;;;;;;;;14.75;64.36;100175.44;5077517;28;987;-94
2022/06/12 07:50:52;;;;;;;;;;;;;;;14.75;64.31;100167.31;5049361;28;2767;-95
2022/06/12 07:53:19;;;;;;;;;;;;;;;14.75;64.42;100173.53;5057364;28;972;-95
2022/06/12 07:55:46;;;;;;;;;;;;;;;14.75;64.35;100164.59;5077760;28;1315;-94
2022/06/12 07:58:13;;;;;;;;;;;;;;;14.74;64.34;100174.63;5080172;28;1195;-96
2022/06/12 08:00:39;;;;;;;;;;;;;;;14.74;64.49;100168.41;5062468;28;1593;-93
2022/06/12 08:03:05;;;;;;;;;;;;;;;14.76;64.50;100177.06;5075970;28;1914;-93
2022/06/12 08:05:32;;;;;;;;;;;;;;;14.76;64.38;100177.06;5076561;28;1306;-94
2022/06/12 08:07:59;;;;;;;;;;;;;;;14.75;64.35;100170.03;5076505;28;1187;-94
2022/06/12 08:10:25;;;;;;;;;;;;;;;14.74;64.52;100160.25;5076091;28;1459;-95
2022/06/12 08:12:52;;;;;;;;;;;;;;;14.74;64.34;100147.53;5073108;28;1647;-96
2022/06/12 08:15:18;;;;;;;;;;;;;;;14.74;64.52;100144.00;5079890;28;1284;-95
2022/06/12 08:17:45;;;;;;;;;;;;;;;14.75;64.57;100142.91;5075464;28;1199;-94
2022/06/12 08:20:28;;;;;;;;;;;;;;;14.73;64.53;100142.34;5076206;28;1626;-95
2022/06/12 08:22:55;;;;;;;;;;;;;;;14.73;64.53;100139.63;5075614;28;1914;-95
2022/06/12 08:25:22;;;;;;;;;;;;;;;14.73;64.61;100145.06;5059811;28;1241;-95
2022/06/12 08:27:48;;;;;;;;;;;;;;;14.75;64.49;100135.59;5059181;28;1313;-95
2022/06/12 08:30:15;;;;;;;;;;;;;;;14.76;64.51;100141.81;5076325;28;1337;-95
2022/06/12 08:32:41;;;;;;;;;;;;;;;14.76;64.56;100133.69;5079256;28;1317;-95
2022/06/12 08:35:08;;;;;;;;;;;;;;;14.75;64.44;100132.88;5079203;28;1191;-95
2022/06/12 08:37:35;;;;;;;;;;;;;;;14.75;64.49;100145.63;5096908;28;1134;-95
2022/06/12 08:40:01;;;;;;;;;;;;;;;14.75;64.74;100132.06;5063107;28;1484;-95
2022/06/12 08:42:28;;;;;;;;;;;;;;;14.76;64.67;100142.69;5058557;28;1914;-96
2022/06/12 08:44:54;;;;;;;;;;;;;;;14.76;64.58;100141.81;5075352;28;1301;-95
2022/06/12 08:47:21;;;;;;;;;;;;;;;14.76;64.72;100147.25;5058682;28;1413;-96
2022/06/12 08:49:47;;;;;;;;;;;;;;;14.76;64.60;100134.53;5059215;28;1216;-96
2022/06/12 08:52:14;;;;;;;;;;;;;;;14.75;64.72;100130.19;5058643;28;1211;-96
2022/06/12 08:54:40;;;;;;;;;;;;;;;14.77;64.67;100146.19;5058643;28;1276;-95
2022/06/12 08:57:07;;;;;;;;;;;;;;;14.77;64.68;100141.59;5075277;28;1284;-96
2022/06/12 08:59:34;;;;;;;;;;;;;;;14.79;64.60;100145.94;5071178;28;4166;-96
2022/06/12 09:02:26;;;;;;;;;;;;;;;14.77;64.59;100129.94;5047867;28;2242;-96
2022/06/12 09:04:53;;;;;;;;;;;;;;;14.77;64.66;100141.59;5058554;28;1366;-96
2022/06/12 09:07:19;;;;;;;;;;;;;;;14.79;64.76;100140.50;5058357;28;2218;-96
2022/06/12 09:09:47;;;;;;;;;;;;;;;14.79;64.90;100137.78;5074716;28;1225;-96
2022/06/12 09:12:13;;;;;;;;;;;;;;;14.77;64.79;100132.66;5074882;28;1602;-96
2022/06/12 09:14:40;;;;;;;;;;;;;;;14.79;64.83;100144.03;5054848;28;1204;-96
2022/06/12 09:17:06;;;;;;;;;;;;;;;14.77;64.81;100136.16;5046588;28;1196;-95
2022/06/12 09:19:33;;;;;;;;;;;;;;;14.79;64.77;100144.03;5061883;28;2088;-96
2022/06/12 09:22:01;;;;;;;;;;;;;;;14.80;64.72;100131.31;5069876;28;1217;-95
2022/06/12 09:24:29;;;;;;;;;;;;;;;14.80;64.77;100142.97;5058856;28;1215;-96
2022/06/12 09:26:55;;;;;;;;;;;;;;;14.81;64.76;100130.22;5075650;28;1411;-96
2022/06/12 09:29:22;;;;;;;;;;;;;;;14.81;64.90;100120.19;5074435;28;1303;-96
2022/06/12 09:31:49;;;;;;;;;;;;;;;14.80;64.78;100118.56;5058200;28;1262;-95
2022/06/12 09:34:15;;;;;;;;;;;;;;;14.81;64.75;100119.38;5058179;28;1168;-96
2022/06/12 09:36:41;;;;;;;;;;;;;;;14.81;64.95;100130.22;5063569;28;1171;-96
2022/06/12 09:39:08;;;;;;;;;;;;;;;14.81;64.94;100124.81;5057881;28;1373;-96
2022/06/12 09:41:35;;;;;;;;;;;;;;;14.80;64.92;100115.88;5057853;28;1484;-95
2022/06/12 09:44:02;;;;;;;;;;;;;;;14.81;64.89;100131.03;5055482;28;1906;-95
2022/06/12 09:46:28;;;;;;;;;;;;;;;14.82;65.01;100108.25;5063786;28;2160;-95
2022/06/12 09:48:55;;;;;;;;;;;;;;;14.81;65.06;100112.06;5055690;28;1721;-96
2022/06/12 09:51:21;;;;;;;;;;;;;;;14.82;65.07;100108.25;5053696;28;1398;-95
2022/06/12 09:53:48;;;;;;;;;;;;;;;14.81;65.14;100105.84;5074016;28;1210;-95
2022/06/12 09:56:14;;;;;;;;;;;;;;;14.81;65.11;100103.13;5053957;28;1436;-95
2022/06/12 09:58:41;;;;;;;;;;;;;;;14.82;65.10;100110.16;5054450;28;1887;-96
2022/06/12 10:01:07;;;;;;;;;;;;;;;14.82;65.05;100108.25;5054389;28;1191;-96
2022/06/12 10:03:34;;;;;;;;;;;;;;;14.83;65.19;100101.78;5055113;28;1981;-96
2022/06/12 10:06:01;;;;;;;;;;;;;;;14.84;65.16;100097.19;5055250;28;1224;-96
2022/06/12 10:08:27;;;;;;;;;;;;;;;14.84;65.07;100098.00;5054651;28;1004;-96
2022/06/12 10:10:54;;;;;;;;;;;;;;;14.84;65.07;100100.69;5059915;28;1318;-96
2022/06/12 10:13:20;;;;;;;;;;;;;;;14.85;65.16;100090.66;5056650;28;1583;-95
2022/06/12 10:15:47;;;;;;;;;;;;;;;14.84;65.23;100086.34;5055406;28;960;-95
2022/06/12 10:18:14;;;;;;;;;;;;;;;14.83;65.27;100076.56;5065783;28;2027;-95
2022/06/12 10:20:40;;;;;;;;;;;;;;;14.84;65.13;100075.50;5061698;28;2282;-96
2022/06/12 10:23:07;;;;;;;;;;;;;;;14.85;65.23;100074.41;5053691;28;1910;-95
2022/06/12 10:25:33;;;;;;;;;;;;;;;14.85;65.20;100069.78;5071045;28;1238;-96
2022/06/12 10:28:01;;;;;;;;;;;;;;;14.86;65.30;100070.63;5061399;28;1343;-95
2022/06/12 10:30:28;;;;;;;;;;;;;;;14.86;65.23;100079.59;5055107;28;1055;-94
2022/06/12 10:32:54;;;;;;;;;;;;;;;14.87;65.29;100080.41;5059607;28;1406;-96
2022/06/12 10:35:21;;;;;;;;;;;;;;;14.87;65.30;100078.50;5070904;28;1329;-95
2022/06/12 10:37:48;;;;;;;;;;;;;;;14.87;65.21;100083.09;5053322;28;1237;-95
2022/06/12 10:40:16;;;;;;;;;;;;;;;14.88;65.29;100079.31;5053708;28;1259;-95
2022/06/12 10:42:44;;;;;;;;;;;;;;;14.89;65.34;100070.13;5053579;28;1898;-96
2022/06/12 10:45:10;;;;;;;;;;;;;;;14.90;65.37;100077.16;5062249;28;1283;-96
2022/06/12 10:47:37;;;;;;;;;;;;;;;14.90;65.33;100075.25;5074389;28;1190;-96
2022/06/12 10:50:03;;;;;;;;;;;;;;;14.90;65.39;100069.84;5067416;28;1206;-96
2022/06/12 10:52:30;;;;;;;;;;;;;;;14.89;65.41;100068.22;5081949;28;2162;-96
2022/06/12 10:54:56;;;;;;;;;;;;;;;14.90;65.63;100069.84;5063291;28;1283;-96
2022/06/12 10:57:23;;;;;;;;;;;;;;;14.89;65.62;100081.78;5053462;28;1147;-96
2022/06/12 10:59:49;;;;;;;;;;;;;;;14.89;65.57;100079.06;5070302;28;1322;-95
2022/06/12 11:02:16;;;;;;;;;;;;;;;14.89;65.55;100076.34;5061860;28;1439;-95
2022/06/12 11:04:42;;;;;;;;;;;;;;;14.89;65.68;100070.94;5070352;28;1886;-96
2022/06/12 11:07:09;;;;;;;;;;;;;;;14.89;65.50;100072.81;5070102;28;1261;-96
2022/06/12 11:09:35;;;;;;;;;;;;;;;14.88;65.59;100073.88;5053533;28;1776;-95
2022/06/12 11:12:02;;;;;;;;;;;;;;;14.87;65.76;100083.09;5050777;28;1559;-95
2022/06/12 11:14:29;;;;;;;;;;;;;;;14.87;65.68;100081.22;5033820;28;1180;-95
2022/06/12 11:16:56;;;;;;;;;;;;;;;14.88;65.66;100074.72;5055860;28;1241;-96
2022/06/12 11:19:23;;;;;;;;;;;;;;;14.89;65.71;100078.25;5049743;28;1378;-96
2022/06/12 11:21:49;;;;;;;;;;;;;;;14.88;65.66;100073.88;5060335;28;1337;-96
2022/06/12 11:24:16;;;;;;;;;;;;;;;14.88;65.60;100063.03;5073841;28;1918;-95
2022/06/12 11:26:42;;;;;;;;;;;;;;;14.88;65.64;100058.47;5073553;28;1741;-94
2022/06/12 11:29:09;;;;;;;;;;;;;;;14.89;65.62;100061.97;5049449;28;1307;-95
2022/06/12 11:31:35;;;;;;;;;;;;;;;14.88;65.59;100061.16;5036858;28;1467;-96
2022/06/12 11:34:02;;;;;;;;;;;;;;;14.90;65.56;100052.75;5043273;28;1208;-96
2022/06/12 11:36:28;;;;;;;;;;;;;;;14.90;65.62;100053.56;5073528;28;1225;-95
2022/06/12 11:38:55;;;;;;;;;;;;;;;14.91;65.57;100054.38;5043320;28;1325;-96
2022/06/12 11:41:21;;;;;;;;;;;;;;;14.90;65.56;100052.75;5073621;28;1322;-95
2022/06/12 11:43:48;;;;;;;;;;;;;;;14.90;65.55;100050.88;5073335;28;1985;-95
2022/06/12 11:46:15;;;;;;;;;;;;;;;14.91;65.58;100051.66;5073330;28;1330;-95
2022/06/12 11:48:41;;;;;;;;;;;;;;;14.91;65.50;100049.81;5073137;28;1692;-96
2022/06/12 11:51:08;;;;;;;;;;;;;;;14.92;65.65;100056.84;5068909;28;2002;-95
2022/06/12 11:53:35;;;;;;;;;;;;;;;14.92;65.66;100053.31;5065848;28;1330;-95
2022/06/12 11:56:02;;;;;;;;;;;;;;;14.92;65.68;100051.44;5055771;28;2207;-95
2022/06/12 11:58:31;;;;;;;;;;;;;;;14.93;65.67;100044.91;5056400;28;1641;-95
2022/06/12 12:00:58;;;;;;;;;;;;;;;14.93;65.59;100042.22;5057344;28;1176;-96
2022/06/12 12:03:25;;;;;;;;;;;;;;;14.95;65.66;100041.97;5037876;28;1914;-96
2022/06/12 12:05:51;;;;;;;;;;;;;;;14.95;65.65;100039.25;5060048;28;1299;-96
2022/06/12 12:08:18;;;;;;;;;;;;;;;14.97;65.80;100042.50;5072768;28;1466;-95
2022/06/12 12:10:44;;;;;;;;;;;;;;;14.98;65.76;100038.72;5069764;28;1196;-96
2022/06/12 12:13:11;;;;;;;;;;;;;;;14.98;65.73;100038.72;5073158;28;1350;-96
2022/06/12 12:15:37;;;;;;;;;;;;;;;14.97;65.81;100034.34;5070865;28;1187;-95
2022/06/12 12:18:04;;;;;;;;;;;;;;;14.98;65.96;100033.31;5051709;28;1027;-96
2022/06/12 12:20:30;;;;;;;;;;;;;;;14.98;66.03;100033.31;5072399;28;1598;-96
2022/06/12 12:22:57;;;;;;;;;;;;;;;14.97;65.89;100027.06;5056436;28;1906;-96
2022/06/12 12:25:23;;;;;;;;;;;;;;;14.98;66.07;100023.25;5072970;28;1140;-96
2022/06/12 12:27:50;;;;;;;;;;;;;;;14.98;66.06;100027.88;5055697;28;1356;-96
2022/06/12 12:30:17;;;;;;;;;;;;;;;14.99;66.21;100024.06;5045156;28;1737;-96
2022/06/12 12:32:43;;;;;;;;;;;;;;;14.99;66.11;100026.78;5055128;28;1711;-96
2022/06/12 12:41:11;;;;;;;;;;;;;;;14.99;65.99;100022.19;5072465;28;1187;-96
2022/06/12 12:43:25;;;;;;;;;;;;;;;15.01;66.20;100013.78;5057393;28;1975;-96
2022/06/12 12:45:51;;;;;;;;;;;;;;;15.01;66.33;100013.78;5075728;28;1352;-95
2022/06/12 12:48:18;;;;;;;;;;;;;;;15.03;66.32;100016.22;5063326;28;1766;-95
2022/06/12 12:50:45;;;;;;;;;;;;;;;15.03;66.43;100016.22;5076275;28;1296;-96
2022/06/12 12:53:12;;;;;;;;;;;;;;;15.02;66.42;100015.41;5059017;28;1208;-96
2022/06/12 12:55:39;;;;;;;;;;;;;;;15.04;66.52;99998.91;5051972;28;1103;-95
2022/06/12 12:58:06;;;;;;;;;;;;;;;15.05;66.45;100011.38;5037335;28;1601;-95